sensor_id;sensor_type;location;lat;lon;timestamp;temperature;humidity
506;DHT22;551;48.524;9.056;2023-03-31T00:00:29;10.40;1.00
506;DHT22;551;48.524;9.056;2023-03-31T00:02:56;10.30;1.00
506;DHT22;551;48.524;9.056;2023-03-31T00:05:23;10.20;1.00
506;DHT22;551;48.524;9.056;2023-03-31T00:07:53;10.30;1.00
506;DHT22;551;48.524;9.056;2023-03-31T00:10:19;10.20;1.00
506;DHT22;551;48.524;9.056;2023-03-31T00:12:46;10.20;1.00
506;DHT22;551;48.524;9.056;2023-03-31T00:15:12;10.20;1.00
506;DHT22;551;48.524;9.056;2023-03-31T00:17:37;10.20;1.00
506;DHT22;551;48.524;9.056;2023-03-31T00:20:03;10.20;1.00
506;DHT22;551;48.524;9.056;2023-03-31T00:22:30;10.10;1.00
506;DHT22;551;48.524;9.056;2023-03-31T00:24:55;10.20;1.00
506;DHT22;551;48.524;9.056;2023-03-31T00:27:21;10.20;1.00
506;DHT22;551;48.524;9.056;2023-03-31T00:29:46;10.20;1.00
506;DHT22;551;48.524;9.056;2023-03-31T00:32:14;10.20;1.00
506;DHT22;551;48.524;9.056;2023-03-31T00:34:40;10.30;1.00
506;DHT22;551;48.524;9.056;2023-03-31T00:37:06;10.30;1.00
506;DHT22;551;48.524;9.056;2023-03-31T00:39:34;10.30;1.00
506;DHT22;551;48.524;9.056;2023-03-31T00:42:02;10.40;1.00
506;DHT22;551;48.524;9.056;2023-03-31T00:44:29;10.40;1.00
506;DHT22;551;48.524;9.056;2023-03-31T00:47:02;10.40;1.00
506;DHT22;551;48.524;9.056;2023-03-31T00:49:37;10.30;1.00
506;DHT22;551;48.524;9.056;2023-03-31T00:52:09;10.40;1.00
506;DHT22;551;48.524;9.056;2023-03-31T00:54:37;10.40;1.00
506;DHT22;551;48.524;9.056;2023-03-31T00:57:04;10.40;1.00
506;DHT22;551;48.524;9.056;2023-03-31T00:59:36;10.40;1.00
506;DHT22;551;48.524;9.056;2023-03-31T01:02:03;10.50;1.00
506;DHT22;551;48.524;9.056;2023-03-31T01:04:41;10.50;1.00
506;DHT22;551;48.524;9.056;2023-03-31T01:07:15;10.50;1.00
506;DHT22;551;48.524;9.056;2023-03-31T01:09:44;10.60;1.00
506;DHT22;551;48.524;9.056;2023-03-31T01:12:12;10.60;1.00
506;DHT22;551;48.524;9.056;2023-03-31T01:14:39;10.70;1.00
506;DHT22;551;48.524;9.056;2023-03-31T01:17:05;10.70;1.00
506;DHT22;551;48.524;9.056;2023-03-31T01:19:56;10.70;1.00
506;DHT22;551;48.524;9.056;2023-03-31T01:28:25;10.70;1.00
506;DHT22;551;48.524;9.056;2023-03-31T01:34:15;10.70;1.00
506;DHT22;551;48.524;9.056;2023-03-31T01:45:56;10.90;1.00
506;DHT22;551;48.524;9.056;2023-03-31T01:48:33;11.00;1.00
506;DHT22;551;48.524;9.056;2023-03-31T01:51:04;11.10;1.00
506;DHT22;551;48.524;9.056;2023-03-31T01:53:32;11.10;1.00
506;DHT22;551;48.524;9.056;2023-03-31T01:56:10;11.20;1.00
506;DHT22;551;48.524;9.056;2023-03-31T01:59:01;11.30;1.00
506;DHT22;551;48.524;9.056;2023-03-31T02:01:35;11.40;1.00
506;DHT22;551;48.524;9.056;2023-03-31T02:04:08;11.50;1.00
506;DHT22;551;48.524;9.056;2023-03-31T02:06:37;11.60;1.00
506;DHT22;551;48.524;9.056;2023-03-31T02:09:09;11.80;1.00
506;DHT22;551;48.524;9.056;2023-03-31T02:11:37;12.00;1.00
506;DHT22;551;48.524;9.056;2023-03-31T02:14:04;12.10;1.00
506;DHT22;551;48.524;9.056;2023-03-31T02:16:36;12.20;1.00
506;DHT22;551;48.524;9.056;2023-03-31T02:19:07;12.20;1.00
506;DHT22;551;48.524;9.056;2023-03-31T02:21:37;12.30;1.00
506;DHT22;551;48.524;9.056;2023-03-31T02:24:10;12.30;1.00
506;DHT22;551;48.524;9.056;2023-03-31T02:26:46;12.30;1.00
506;DHT22;551;48.524;9.056;2023-03-31T02:29:13;12.30;1.00
506;DHT22;551;48.524;9.056;2023-03-31T02:31:46;12.20;1.00
506;DHT22;551;48.524;9.056;2023-03-31T02:34:13;12.30;1.00
506;DHT22;551;48.524;9.056;2023-03-31T02:36:41;12.30;1.00
506;DHT22;551;48.524;9.056;2023-03-31T02:39:13;12.30;1.00
506;DHT22;551;48.524;9.056;2023-03-31T02:41:39;12.30;1.00
506;DHT22;551;48.524;9.056;2023-03-31T02:44:05;12.30;1.00
506;DHT22;551;48.524;9.056;2023-03-31T02:46:31;12.20;1.00
506;DHT22;551;48.524;9.056;2023-03-31T02:48:59;12.10;1.00
506;DHT22;551;48.524;9.056;2023-03-31T02:54:34;11.90;1.00
506;DHT22;551;48.524;9.056;2023-03-31T02:57:19;11.90;1.00
506;DHT22;551;48.524;9.056;2023-03-31T03:08:33;11.70;1.00
506;DHT22;551;48.524;9.056;2023-03-31T03:11:10;11.60;1.00
506;DHT22;551;48.524;9.056;2023-03-31T03:14:03;11.50;1.00
506;DHT22;551;48.524;9.056;2023-03-31T03:16:38;11.40;1.00
506;DHT22;551;48.524;9.056;2023-03-31T03:19:06;11.30;1.00
506;DHT22;551;48.524;9.056;2023-03-31T03:21:32;11.30;1.00
506;DHT22;551;48.524;9.056;2023-03-31T03:23:58;11.30;1.00
506;DHT22;551;48.524;9.056;2023-03-31T03:26:25;11.20;1.00
506;DHT22;551;48.524;9.056;2023-03-31T03:28:53;11.20;1.00
506;DHT22;551;48.524;9.056;2023-03-31T03:31:19;11.10;1.00
506;DHT22;551;48.524;9.056;2023-03-31T03:33:45;11.10;1.00
506;DHT22;551;48.524;9.056;2023-03-31T03:36:11;10.90;1.00
506;DHT22;551;48.524;9.056;2023-03-31T03:38:36;10.90;1.00
506;DHT22;551;48.524;9.056;2023-03-31T03:41:03;10.80;1.00
506;DHT22;551;48.524;9.056;2023-03-31T03:43:28;10.70;1.00
506;DHT22;551;48.524;9.056;2023-03-31T03:45:54;10.70;1.00
506;DHT22;551;48.524;9.056;2023-03-31T03:48:20;10.60;1.00
506;DHT22;551;48.524;9.056;2023-03-31T03:50:46;10.50;1.00
506;DHT22;551;48.524;9.056;2023-03-31T03:53:13;10.40;1.00
506;DHT22;551;48.524;9.056;2023-03-31T03:55:38;10.30;1.00
506;DHT22;551;48.524;9.056;2023-03-31T03:58:04;10.20;1.00
506;DHT22;551;48.524;9.056;2023-03-31T04:00:30;10.10;1.00
506;DHT22;551;48.524;9.056;2023-03-31T04:02:55;10.00;1.00
506;DHT22;551;48.524;9.056;2023-03-31T04:05:21;10.00;1.00
506;DHT22;551;48.524;9.056;2023-03-31T04:07:47;9.80;1.00
506;DHT22;551;48.524;9.056;2023-03-31T04:10:12;9.70;1.00
506;DHT22;551;48.524;9.056;2023-03-31T04:12:38;9.70;1.00
506;DHT22;551;48.524;9.056;2023-03-31T04:15:04;9.70;1.00
506;DHT22;551;48.524;9.056;2023-03-31T04:17:30;9.70;1.00
506;DHT22;551;48.524;9.056;2023-03-31T04:20:07;9.70;1.00
506;DHT22;551;48.524;9.056;2023-03-31T04:22:35;9.70;1.00
506;DHT22;551;48.524;9.056;2023-03-31T04:25:06;9.70;1.00
506;DHT22;551;48.524;9.056;2023-03-31T04:27:39;9.80;1.00
506;DHT22;551;48.524;9.056;2023-03-31T04:30:12;9.80;1.00
506;DHT22;551;48.524;9.056;2023-03-31T04:32:37;9.90;1.00
506;DHT22;551;48.524;9.056;2023-03-31T04:35:03;9.90;1.00
506;DHT22;551;48.524;9.056;2023-03-31T04:37:29;9.90;1.00
506;DHT22;551;48.524;9.056;2023-03-31T04:39:59;10.00;1.00
506;DHT22;551;48.524;9.056;2023-03-31T04:42:32;10.00;1.00
506;DHT22;551;48.524;9.056;2023-03-31T04:44:58;10.00;1.00
506;DHT22;551;48.524;9.056;2023-03-31T04:47:23;10.00;1.00
506;DHT22;551;48.524;9.056;2023-03-31T04:49:49;10.10;1.00
506;DHT22;551;48.524;9.056;2023-03-31T04:52:14;10.20;1.00
506;DHT22;551;48.524;9.056;2023-03-31T04:54:40;10.20;1.00
506;DHT22;551;48.524;9.056;2023-03-31T04:57:05;10.20;1.00
506;DHT22;551;48.524;9.056;2023-03-31T04:59:31;10.20;1.00
506;DHT22;551;48.524;9.056;2023-03-31T05:01:56;10.20;1.00
506;DHT22;551;48.524;9.056;2023-03-31T05:04:22;10.30;1.00
506;DHT22;551;48.524;9.056;2023-03-31T05:06:47;10.30;1.00
506;DHT22;551;48.524;9.056;2023-03-31T05:09:13;10.40;1.00
506;DHT22;551;48.524;9.056;2023-03-31T05:11:38;10.40;1.00
506;DHT22;551;48.524;9.056;2023-03-31T05:14:04;10.40;1.00
506;DHT22;551;48.524;9.056;2023-03-31T05:16:30;10.50;1.00
506;DHT22;551;48.524;9.056;2023-03-31T05:18:55;10.50;1.00
506;DHT22;551;48.524;9.056;2023-03-31T05:21:21;10.50;1.00
506;DHT22;551;48.524;9.056;2023-03-31T05:23:46;10.50;1.00
506;DHT22;551;48.524;9.056;2023-03-31T05:26:13;10.50;1.00
506;DHT22;551;48.524;9.056;2023-03-31T05:28:39;10.50;1.00
506;DHT22;551;48.524;9.056;2023-03-31T05:31:06;10.50;1.00
506;DHT22;551;48.524;9.056;2023-03-31T05:33:32;10.50;1.00
506;DHT22;551;48.524;9.056;2023-03-31T05:35:58;10.50;1.00
506;DHT22;551;48.524;9.056;2023-03-31T05:38:25;10.40;1.00
506;DHT22;551;48.524;9.056;2023-03-31T05:40:54;10.40;1.00
506;DHT22;551;48.524;9.056;2023-03-31T05:43:19;10.40;1.00
506;DHT22;551;48.524;9.056;2023-03-31T05:45:45;10.40;1.00
506;DHT22;551;48.524;9.056;2023-03-31T05:48:10;10.50;1.00
506;DHT22;551;48.524;9.056;2023-03-31T05:50:36;10.50;1.00
506;DHT22;551;48.524;9.056;2023-03-31T05:53:01;10.50;1.00
506;DHT22;551;48.524;9.056;2023-03-31T05:55:27;10.50;1.00
506;DHT22;551;48.524;9.056;2023-03-31T05:57:52;10.50;1.00
506;DHT22;551;48.524;9.056;2023-03-31T06:00:19;10.50;1.00
506;DHT22;551;48.524;9.056;2023-03-31T06:02:44;10.60;1.00
506;DHT22;551;48.524;9.056;2023-03-31T06:05:11;10.60;1.00
506;DHT22;551;48.524;9.056;2023-03-31T06:07:37;10.60;1.00
506;DHT22;551;48.524;9.056;2023-03-31T06:10:02;10.60;1.00
506;DHT22;551;48.524;9.056;2023-03-31T06:12:28;10.50;1.00
506;DHT22;551;48.524;9.056;2023-03-31T06:14:53;10.60;1.00
506;DHT22;551;48.524;9.056;2023-03-31T06:17:19;10.60;1.00
506;DHT22;551;48.524;9.056;2023-03-31T06:19:45;10.60;1.00
506;DHT22;551;48.524;9.056;2023-03-31T06:22:10;10.60;1.00
506;DHT22;551;48.524;9.056;2023-03-31T06:24:36;10.70;1.00
506;DHT22;551;48.524;9.056;2023-03-31T06:27:01;10.70;1.00
506;DHT22;551;48.524;9.056;2023-03-31T06:29:28;10.70;1.00
506;DHT22;551;48.524;9.056;2023-03-31T06:31:53;10.70;1.00
506;DHT22;551;48.524;9.056;2023-03-31T06:34:19;10.60;1.00
506;DHT22;551;48.524;9.056;2023-03-31T06:36:44;10.60;1.00
506;DHT22;551;48.524;9.056;2023-03-31T06:39:10;10.60;1.00
506;DHT22;551;48.524;9.056;2023-03-31T06:41:35;10.60;1.00
506;DHT22;551;48.524;9.056;2023-03-31T06:44:03;10.70;1.00
506;DHT22;551;48.524;9.056;2023-03-31T06:46:28;10.60;1.00
506;DHT22;551;48.524;9.056;2023-03-31T06:48:54;10.60;1.00
506;DHT22;551;48.524;9.056;2023-03-31T06:51:19;10.60;1.00
506;DHT22;551;48.524;9.056;2023-03-31T06:53:45;10.60;1.00
506;DHT22;551;48.524;9.056;2023-03-31T06:56:10;10.50;1.00
506;DHT22;551;48.524;9.056;2023-03-31T06:58:36;10.60;1.00
506;DHT22;551;48.524;9.056;2023-03-31T07:01:03;10.50;1.00
506;DHT22;551;48.524;9.056;2023-03-31T07:03:30;10.50;1.00
506;DHT22;551;48.524;9.056;2023-03-31T07:05:56;10.60;1.00
506;DHT22;551;48.524;9.056;2023-03-31T07:08:22;10.60;1.00
506;DHT22;551;48.524;9.056;2023-03-31T07:10:49;10.70;1.00
506;DHT22;551;48.524;9.056;2023-03-31T07:13:17;10.80;1.00
506;DHT22;551;48.524;9.056;2023-03-31T07:15:45;10.90;1.00
506;DHT22;551;48.524;9.056;2023-03-31T07:18:11;10.90;1.00
506;DHT22;551;48.524;9.056;2023-03-31T07:20:39;11.00;1.00
506;DHT22;551;48.524;9.056;2023-03-31T07:23:06;11.20;1.00
506;DHT22;551;48.524;9.056;2023-03-31T07:25:33;11.20;1.00
506;DHT22;551;48.524;9.056;2023-03-31T07:27:59;11.30;1.00
506;DHT22;551;48.524;9.056;2023-03-31T07:30:25;11.40;1.00
506;DHT22;551;48.524;9.056;2023-03-31T07:32:52;11.60;1.00
506;DHT22;551;48.524;9.056;2023-03-31T07:35:19;11.80;1.00
506;DHT22;551;48.524;9.056;2023-03-31T07:37:46;11.80;1.00
506;DHT22;551;48.524;9.056;2023-03-31T07:40:15;11.90;1.00
506;DHT22;551;48.524;9.056;2023-03-31T07:42:42;12.00;1.00
506;DHT22;551;48.524;9.056;2023-03-31T07:45:09;12.20;1.00
506;DHT22;551;48.524;9.056;2023-03-31T07:47:35;12.40;1.00
506;DHT22;551;48.524;9.056;2023-03-31T07:50:01;12.80;1.00
506;DHT22;551;48.524;9.056;2023-03-31T07:52:27;14.10;1.00
506;DHT22;551;48.524;9.056;2023-03-31T07:54:52;15.60;1.00
506;DHT22;551;48.524;9.056;2023-03-31T07:57:18;16.30;1.00
506;DHT22;551;48.524;9.056;2023-03-31T07:59:44;16.50;1.00
506;DHT22;551;48.524;9.056;2023-03-31T08:02:12;16.50;1.00
506;DHT22;551;48.524;9.056;2023-03-31T08:04:38;17.30;1.00
506;DHT22;551;48.524;9.056;2023-03-31T08:07:07;18.70;1.00
506;DHT22;551;48.524;9.056;2023-03-31T08:09:32;20.70;1.00
506;DHT22;551;48.524;9.056;2023-03-31T08:11:58;22.70;1.00
506;DHT22;551;48.524;9.056;2023-03-31T08:14:23;24.70;1.00
506;DHT22;551;48.524;9.056;2023-03-31T08:16:49;25.90;1.00
506;DHT22;551;48.524;9.056;2023-03-31T08:19:15;27.10;1.00
506;DHT22;551;48.524;9.056;2023-03-31T08:21:41;28.20;1.00
506;DHT22;551;48.524;9.056;2023-03-31T08:24:06;28.80;1.00
506;DHT22;551;48.524;9.056;2023-03-31T08:26:32;29.30;1.00
506;DHT22;551;48.524;9.056;2023-03-31T08:28:59;29.90;1.00
506;DHT22;551;48.524;9.056;2023-03-31T08:31:25;29.60;1.00
506;DHT22;551;48.524;9.056;2023-03-31T08:33:53;29.60;1.00
506;DHT22;551;48.524;9.056;2023-03-31T08:36:19;30.30;1.00
506;DHT22;551;48.524;9.056;2023-03-31T08:38:45;30.50;1.00
506;DHT22;551;48.524;9.056;2023-03-31T08:44:21;29.80;1.00
506;DHT22;551;48.524;9.056;2023-03-31T08:46:51;29.80;1.00
506;DHT22;551;48.524;9.056;2023-03-31T08:49:19;30.50;1.00
506;DHT22;551;48.524;9.056;2023-03-31T08:51:49;30.50;1.00
506;DHT22;551;48.524;9.056;2023-03-31T08:54:29;29.60;1.00
506;DHT22;551;48.524;9.056;2023-03-31T08:56:56;29.00;1.00
506;DHT22;551;48.524;9.056;2023-03-31T08:59:30;29.80;1.00
506;DHT22;551;48.524;9.056;2023-03-31T09:02:33;30.00;1.00
506;DHT22;551;48.524;9.056;2023-03-31T09:10:40;31.80;1.00
506;DHT22;551;48.524;9.056;2023-03-31T09:13:23;30.80;1.00
506;DHT22;551;48.524;9.056;2023-03-31T09:15:58;29.50;1.00
506;DHT22;551;48.524;9.056;2023-03-31T09:18:32;28.80;1.00
506;DHT22;551;48.524;9.056;2023-03-31T09:24:02;28.50;1.00
506;DHT22;551;48.524;9.056;2023-03-31T09:29:11;29.40;1.00
506;DHT22;551;48.524;9.056;2023-03-31T09:31:41;29.00;1.00
506;DHT22;551;48.524;9.056;2023-03-31T09:34:24;28.70;1.00
506;DHT22;551;48.524;9.056;2023-03-31T09:36:52;28.00;1.00
506;DHT22;551;48.524;9.056;2023-03-31T09:39:17;27.30;1.00
506;DHT22;551;48.524;9.056;2023-03-31T09:41:45;27.20;1.00
506;DHT22;551;48.524;9.056;2023-03-31T09:46:48;28.20;1.00
506;DHT22;551;48.524;9.056;2023-03-31T09:49:17;28.30;1.00
506;DHT22;551;48.524;9.056;2023-03-31T09:51:47;28.70;1.00
506;DHT22;551;48.524;9.056;2023-03-31T09:54:21;29.50;1.00
506;DHT22;551;48.524;9.056;2023-03-31T09:56:49;29.00;1.00
506;DHT22;551;48.524;9.056;2023-03-31T09:59:32;29.00;1.00
506;DHT22;551;48.524;9.056;2023-03-31T10:02:01;27.50;1.00
506;DHT22;551;48.524;9.056;2023-03-31T10:04:31;26.30;1.00
506;DHT22;551;48.524;9.056;2023-03-31T10:06:58;26.60;1.00
506;DHT22;551;48.524;9.056;2023-03-31T10:09:29;26.70;1.00
506;DHT22;551;48.524;9.056;2023-03-31T10:11:57;26.60;1.00
506;DHT22;551;48.524;9.056;2023-03-31T10:14:26;25.80;1.00
506;DHT22;551;48.524;9.056;2023-03-31T10:16:54;25.90;1.00
506;DHT22;551;48.524;9.056;2023-03-31T10:19:25;27.00;1.00
506;DHT22;551;48.524;9.056;2023-03-31T10:22:02;27.60;1.00
506;DHT22;551;48.524;9.056;2023-03-31T10:24:40;27.60;1.00
506;DHT22;551;48.524;9.056;2023-03-31T10:27:21;27.30;1.00
506;DHT22;551;48.524;9.056;2023-03-31T10:29:53;27.10;1.00
506;DHT22;551;48.524;9.056;2023-03-31T10:34:48;27.20;1.00
506;DHT22;551;48.524;9.056;2023-03-31T10:37:17;27.50;1.00
506;DHT22;551;48.524;9.056;2023-03-31T10:39:43;26.70;1.00
506;DHT22;551;48.524;9.056;2023-03-31T10:42:18;26.90;1.00
506;DHT22;551;48.524;9.056;2023-03-31T10:44:45;27.00;1.00
506;DHT22;551;48.524;9.056;2023-03-31T10:47:17;27.10;1.00
506;DHT22;551;48.524;9.056;2023-03-31T10:49:44;26.80;1.00
506;DHT22;551;48.524;9.056;2023-03-31T10:52:24;26.20;1.00
506;DHT22;551;48.524;9.056;2023-03-31T10:54:59;25.20;1.00
506;DHT22;551;48.524;9.056;2023-03-31T10:57:45;24.30;1.00
506;DHT22;551;48.524;9.056;2023-03-31T11:03:07;24.90;1.00
506;DHT22;551;48.524;9.056;2023-03-31T11:05:51;25.20;1.00
506;DHT22;551;48.524;9.056;2023-03-31T11:09:05;24.50;1.00
506;DHT22;551;48.524;9.056;2023-03-31T11:20:14;19.30;1.00
506;DHT22;551;48.524;9.056;2023-03-31T11:22:46;17.80;1.00
506;DHT22;551;48.524;9.056;2023-03-31T11:33:16;14.00;1.00
506;DHT22;551;48.524;9.056;2023-03-31T11:39:02;13.00;1.00
506;DHT22;551;48.524;9.056;2023-03-31T11:41:41;12.60;1.00
506;DHT22;551;48.524;9.056;2023-03-31T11:44:15;12.40;1.00
506;DHT22;551;48.524;9.056;2023-03-31T11:47:05;12.30;1.00
506;DHT22;551;48.524;9.056;2023-03-31T11:49:52;12.00;1.00
506;DHT22;551;48.524;9.056;2023-03-31T11:52:39;12.00;1.00
506;DHT22;551;48.524;9.056;2023-03-31T11:55:17;12.10;1.00
506;DHT22;551;48.524;9.056;2023-03-31T12:00:29;13.40;1.00
506;DHT22;551;48.524;9.056;2023-03-31T12:03:32;13.90;1.00
506;DHT22;551;48.524;9.056;2023-03-31T12:06:19;14.00;1.00
506;DHT22;551;48.524;9.056;2023-03-31T12:08:52;14.00;1.00
506;DHT22;551;48.524;9.056;2023-03-31T12:14:33;14.00;1.00
506;DHT22;551;48.524;9.056;2023-03-31T12:17:14;14.10;1.00
506;DHT22;551;48.524;9.056;2023-03-31T12:19:55;14.20;1.00
506;DHT22;551;48.524;9.056;2023-03-31T12:22:28;14.50;1.00
506;DHT22;551;48.524;9.056;2023-03-31T12:24:54;15.40;1.00
506;DHT22;551;48.524;9.056;2023-03-31T12:27:24;16.90;1.00
506;DHT22;551;48.524;9.056;2023-03-31T12:30:01;17.80;1.00
506;DHT22;551;48.524;9.056;2023-03-31T12:32:32;18.80;1.00
506;DHT22;551;48.524;9.056;2023-03-31T12:35:00;20.20;1.00
506;DHT22;551;48.524;9.056;2023-03-31T12:43:22;22.80;1.00
506;DHT22;551;48.524;9.056;2023-03-31T12:46:21;23.10;1.00
506;DHT22;551;48.524;9.056;2023-03-31T12:51:49;23.20;1.00
506;DHT22;551;48.524;9.056;2023-03-31T12:54:34;23.30;1.00
506;DHT22;551;48.524;9.056;2023-03-31T12:57:12;23.30;1.00
506;DHT22;551;48.524;9.056;2023-03-31T12:59:42;23.50;1.00
506;DHT22;551;48.524;9.056;2023-03-31T13:04:34;23.40;1.00
506;DHT22;551;48.524;9.056;2023-03-31T13:07:02;22.60;1.00
506;DHT22;551;48.524;9.056;2023-03-31T13:09:45;21.30;1.00
506;DHT22;551;48.524;9.056;2023-03-31T13:12:19;20.20;1.00
506;DHT22;551;48.524;9.056;2023-03-31T13:14:47;19.50;1.00
506;DHT22;551;48.524;9.056;2023-03-31T13:17:36;19.00;1.00
506;DHT22;551;48.524;9.056;2023-03-31T13:20:24;18.50;1.00
506;DHT22;551;48.524;9.056;2023-03-31T13:22:59;18.20;1.00
506;DHT22;551;48.524;9.056;2023-03-31T13:27:56;17.40;1.00
506;DHT22;551;48.524;9.056;2023-03-31T13:50:34;15.50;1.00
506;DHT22;551;48.524;9.056;2023-03-31T13:56:24;14.70;1.00
506;DHT22;551;48.524;9.056;2023-03-31T14:02:22;13.60;1.00
506;DHT22;551;48.524;9.056;2023-03-31T14:05:16;13.40;1.00
506;DHT22;551;48.524;9.056;2023-03-31T14:08:00;13.70;1.00
506;DHT22;551;48.524;9.056;2023-03-31T14:10:32;14.10;1.00
506;DHT22;551;48.524;9.056;2023-03-31T14:15:43;14.40;1.00
506;DHT22;551;48.524;9.056;2023-03-31T14:18:14;14.40;1.00
506;DHT22;551;48.524;9.056;2023-03-31T14:23:33;14.10;1.00
506;DHT22;551;48.524;9.056;2023-03-31T14:26:20;13.90;1.00
506;DHT22;551;48.524;9.056;2023-03-31T14:31:55;13.90;1.00
506;DHT22;551;48.524;9.056;2023-03-31T14:37:10;14.20;1.00
506;DHT22;551;48.524;9.056;2023-03-31T14:39:41;14.20;1.00
506;DHT22;551;48.524;9.056;2023-03-31T14:42:12;14.20;1.00
506;DHT22;551;48.524;9.056;2023-03-31T14:44:40;14.20;1.00
506;DHT22;551;48.524;9.056;2023-03-31T14:47:19;14.20;1.00
506;DHT22;551;48.524;9.056;2023-03-31T14:49:44;14.20;1.00
506;DHT22;551;48.524;9.056;2023-03-31T14:52:16;14.40;1.00
506;DHT22;551;48.524;9.056;2023-03-31T14:54:46;14.60;1.00
506;DHT22;551;48.524;9.056;2023-03-31T14:57:21;14.60;1.00
506;DHT22;551;48.524;9.056;2023-03-31T14:59:51;14.60;1.00
506;DHT22;551;48.524;9.056;2023-03-31T15:02:22;14.40;1.00
506;DHT22;551;48.524;9.056;2023-03-31T15:04:54;14.40;1.00
506;DHT22;551;48.524;9.056;2023-03-31T15:07:22;14.40;1.00
506;DHT22;551;48.524;9.056;2023-03-31T15:09:51;14.60;1.00
506;DHT22;551;48.524;9.056;2023-03-31T15:12:19;14.70;1.00
506;DHT22;551;48.524;9.056;2023-03-31T15:14:49;14.70;1.00
506;DHT22;551;48.524;9.056;2023-03-31T15:19:45;14.70;1.00
506;DHT22;551;48.524;9.056;2023-03-31T15:22:14;14.60;1.00
506;DHT22;551;48.524;9.056;2023-03-31T15:24:42;14.40;1.00
506;DHT22;551;48.524;9.056;2023-03-31T15:27:16;14.30;1.00
506;DHT22;551;48.524;9.056;2023-03-31T15:29:48;14.20;1.00
506;DHT22;551;48.524;9.056;2023-03-31T15:32:25;14.20;1.00
506;DHT22;551;48.524;9.056;2023-03-31T15:34:52;14.20;1.00
506;DHT22;551;48.524;9.056;2023-03-31T15:37:27;14.20;1.00
506;DHT22;551;48.524;9.056;2023-03-31T15:39:57;14.30;1.00
506;DHT22;551;48.524;9.056;2023-03-31T15:42:25;14.30;1.00
506;DHT22;551;48.524;9.056;2023-03-31T15:45:04;14.20;1.00
506;DHT22;551;48.524;9.056;2023-03-31T15:47:49;14.10;1.00
506;DHT22;551;48.524;9.056;2023-03-31T15:50:16;14.20;1.00
506;DHT22;551;48.524;9.056;2023-03-31T15:52:50;14.20;1.00
506;DHT22;551;48.524;9.056;2023-03-31T15:55:39;14.30;1.00
506;DHT22;551;48.524;9.056;2023-03-31T15:58:07;14.30;1.00
506;DHT22;551;48.524;9.056;2023-03-31T16:00:40;14.10;1.00
506;DHT22;551;48.524;9.056;2023-03-31T16:03:36;14.00;1.00
506;DHT22;551;48.524;9.056;2023-03-31T16:06:57;13.90;1.00
506;DHT22;551;48.524;9.056;2023-03-31T16:09:09;14.00;1.00
506;DHT22;551;48.524;9.056;2023-03-31T16:11:46;13.90;1.00
506;DHT22;551;48.524;9.056;2023-03-31T16:14:19;13.80;1.00
506;DHT22;551;48.524;9.056;2023-03-31T16:16:55;13.80;1.00
506;DHT22;551;48.524;9.056;2023-03-31T16:19:24;13.70;1.00
506;DHT22;551;48.524;9.056;2023-03-31T16:21:54;13.60;1.00
506;DHT22;551;48.524;9.056;2023-03-31T16:24:30;13.70;1.00
506;DHT22;551;48.524;9.056;2023-03-31T16:27:04;13.70;1.00
506;DHT22;551;48.524;9.056;2023-03-31T16:29:33;13.70;1.00
506;DHT22;551;48.524;9.056;2023-03-31T16:32:14;13.70;1.00
506;DHT22;551;48.524;9.056;2023-03-31T16:34:55;13.60;1.00
506;DHT22;551;48.524;9.056;2023-03-31T16:37:21;13.60;1.00
506;DHT22;551;48.524;9.056;2023-03-31T16:39:47;13.40;1.00
506;DHT22;551;48.524;9.056;2023-03-31T16:42:12;13.10;1.00
506;DHT22;551;48.524;9.056;2023-03-31T16:44:38;12.80;1.00
506;DHT22;551;48.524;9.056;2023-03-31T16:47:03;12.50;1.00
506;DHT22;551;48.524;9.056;2023-03-31T16:49:29;12.20;1.00
506;DHT22;551;48.524;9.056;2023-03-31T16:51:55;12.10;1.00
506;DHT22;551;48.524;9.056;2023-03-31T16:54:20;12.00;1.00
506;DHT22;551;48.524;9.056;2023-03-31T16:56:46;11.90;1.00
506;DHT22;551;48.524;9.056;2023-03-31T16:59:12;11.90;1.00
506;DHT22;551;48.524;9.056;2023-03-31T17:01:38;11.90;1.00
506;DHT22;551;48.524;9.056;2023-03-31T17:04:03;11.90;1.00
506;DHT22;551;48.524;9.056;2023-03-31T17:06:29;11.80;1.00
506;DHT22;551;48.524;9.056;2023-03-31T17:08:55;11.70;1.00
506;DHT22;551;48.524;9.056;2023-03-31T17:11:20;11.60;1.00
506;DHT22;551;48.524;9.056;2023-03-31T17:13:47;11.60;1.00
506;DHT22;551;48.524;9.056;2023-03-31T17:16:12;11.50;1.00
506;DHT22;551;48.524;9.056;2023-03-31T17:18:38;11.40;1.00
506;DHT22;551;48.524;9.056;2023-03-31T17:21:12;11.40;1.00
506;DHT22;551;48.524;9.056;2023-03-31T17:23:38;11.40;1.00
506;DHT22;551;48.524;9.056;2023-03-31T17:26:06;11.40;1.00
506;DHT22;551;48.524;9.056;2023-03-31T17:28:34;11.40;1.00
506;DHT22;551;48.524;9.056;2023-03-31T17:31:00;11.40;1.00
506;DHT22;551;48.524;9.056;2023-03-31T17:33:26;11.40;1.00
506;DHT22;551;48.524;9.056;2023-03-31T17:35:56;11.40;1.00
506;DHT22;551;48.524;9.056;2023-03-31T17:38:23;11.50;1.00
506;DHT22;551;48.524;9.056;2023-03-31T17:40:49;11.60;1.00
506;DHT22;551;48.524;9.056;2023-03-31T17:43:14;11.70;1.00
506;DHT22;551;48.524;9.056;2023-03-31T17:45:40;11.60;1.00
506;DHT22;551;48.524;9.056;2023-03-31T17:48:06;11.70;1.00
506;DHT22;551;48.524;9.056;2023-03-31T17:50:34;11.70;1.00
506;DHT22;551;48.524;9.056;2023-03-31T17:53:00;11.60;1.00
506;DHT22;551;48.524;9.056;2023-03-31T17:55:26;11.60;1.00
506;DHT22;551;48.524;9.056;2023-03-31T17:57:51;11.60;1.00
506;DHT22;551;48.524;9.056;2023-03-31T18:00:17;11.40;1.00
506;DHT22;551;48.524;9.056;2023-03-31T18:02:44;11.40;1.00
506;DHT22;551;48.524;9.056;2023-03-31T18:05:10;11.40;1.00
506;DHT22;551;48.524;9.056;2023-03-31T18:07:36;11.30;1.00
506;DHT22;551;48.524;9.056;2023-03-31T18:10:03;11.20;1.00
506;DHT22;551;48.524;9.056;2023-03-31T18:12:33;11.10;1.00
506;DHT22;551;48.524;9.056;2023-03-31T18:15:01;11.00;1.00
506;DHT22;551;48.524;9.056;2023-03-31T18:17:28;11.00;1.00
506;DHT22;551;48.524;9.056;2023-03-31T18:19:53;11.00;1.00
506;DHT22;551;48.524;9.056;2023-03-31T18:22:19;11.10;1.00
506;DHT22;551;48.524;9.056;2023-03-31T18:24:45;11.10;1.00
506;DHT22;551;48.524;9.056;2023-03-31T18:27:11;11.10;1.00
506;DHT22;551;48.524;9.056;2023-03-31T18:29:37;11.10;1.00
506;DHT22;551;48.524;9.056;2023-03-31T18:32:04;11.20;1.00
506;DHT22;551;48.524;9.056;2023-03-31T18:34:29;11.20;1.00
506;DHT22;551;48.524;9.056;2023-03-31T18:36:55;11.20;1.00
506;DHT22;551;48.524;9.056;2023-03-31T18:39:20;11.20;1.00
506;DHT22;551;48.524;9.056;2023-03-31T18:41:47;11.10;1.00
506;DHT22;551;48.524;9.056;2023-03-31T18:44:13;11.10;1.00
506;DHT22;551;48.524;9.056;2023-03-31T18:46:42;11.10;1.00
506;DHT22;551;48.524;9.056;2023-03-31T18:49:08;11.10;1.00
506;DHT22;551;48.524;9.056;2023-03-31T18:51:33;11.10;1.00
506;DHT22;551;48.524;9.056;2023-03-31T18:53:59;11.00;1.00
506;DHT22;551;48.524;9.056;2023-03-31T18:56:25;11.00;1.00
506;DHT22;551;48.524;9.056;2023-03-31T18:58:50;10.90;1.00
506;DHT22;551;48.524;9.056;2023-03-31T19:01:16;10.90;1.00
506;DHT22;551;48.524;9.056;2023-03-31T19:03:41;10.80;1.00
506;DHT22;551;48.524;9.056;2023-03-31T19:06:09;10.80;1.00
506;DHT22;551;48.524;9.056;2023-03-31T19:08:35;10.70;1.00
506;DHT22;551;48.524;9.056;2023-03-31T19:11:04;10.80;1.00
506;DHT22;551;48.524;9.056;2023-03-31T19:13:30;10.80;1.00
506;DHT22;551;48.524;9.056;2023-03-31T19:15:56;10.80;1.00
506;DHT22;551;48.524;9.056;2023-03-31T19:18:21;10.80;1.00
506;DHT22;551;48.524;9.056;2023-03-31T19:20:47;10.80;1.00